Time;durP1;ratioP1;P1;durP2;ratioP2;P2;SDS_P1;SDS_P2;PMS_P1;PMS_P2;Temp;Humidity;BMP_temperature;BMP_pressure;BME280_temperature;BME280_humidity;BME280_pressure;Samples;Min_cycle;Max_cycle;Signal;HPM_P1;HPM_P2
2022/06/19 00:01:10;;;;;;;12.45;7.35;;;24.70;99.90;;;;;;5015010;28;20175;-56
2022/06/19 00:03:41;;;;;;;13.95;8.23;;;24.60;99.90;;;;;;5014917;28;20673;-54
2022/06/19 00:06:08;;;;;;;13.20;8.48;;;24.70;99.90;;;;;;4997490;28;20203;-54
2022/06/19 00:08:33;;;;;;;13.13;7.85;;;24.50;99.90;;;;;;5014916;28;20532;-54
2022/06/19 00:11:00;;;;;;;11.35;7.43;;;24.60;99.90;;;;;;5014872;28;20176;-57
2022/06/19 00:13:26;;;;;;;17.60;8.50;;;24.50;99.90;;;;;;5014927;28;20532;-54
2022/06/19 00:15:52;;;;;;;14.32;7.88;;;24.50;99.90;;;;;;5014871;28;20164;-54
2022/06/19 00:18:17;;;;;;;12.20;7.53;;;24.40;99.90;;;;;;5015166;28;20591;-54
2022/06/19 00:20:43;;;;;;;12.90;8.13;;;24.50;99.90;;;;;;5015059;28;20557;-56
2022/06/19 00:23:09;;;;;;;14.50;7.45;;;24.50;99.90;;;;;;5014568;28;20203;-56
2022/06/19 00:25:35;;;;;;;16.80;8.57;;;24.40;99.90;;;;;;5014652;28;20167;-57
2022/06/19 00:28:01;;;;;;;17.73;8.23;;;24.60;99.90;;;;;;5014684;28;20160;-55
2022/06/19 00:30:27;;;;;;;15.02;7.60;;;24.70;99.90;;;;;;5014576;28;20175;-55
2022/06/19 00:32:53;;;;;;;14.15;7.68;;;24.80;99.90;;;;;;5014453;28;20536;-55
2022/06/19 00:35:18;;;;;;;12.93;7.43;;;24.70;99.90;;;;;;5014413;28;20206;-56
2022/06/19 00:37:46;;;;;;;18.40;7.47;;;24.60;99.90;;;;;;5014670;28;20703;-54
2022/06/19 00:40:13;;;;;;;17.33;8.45;;;24.60;99.90;;;;;;5014203;28;20221;-54
2022/06/19 00:42:39;;;;;;;16.55;8.13;;;24.50;99.90;;;;;;5014265;28;20160;-53
2022/06/19 00:45:05;;;;;;;16.92;8.65;;;24.50;99.90;;;;;;4996832;28;20214;-54
2022/06/19 00:47:38;;;;;;;18.30;8.63;;;24.50;99.90;;;;;;5014197;28;20652;-54
2022/06/19 00:50:06;;;;;;;15.23;7.65;;;24.70;99.90;;;;;;5014116;28;20274;-56
2022/06/19 00:52:40;;;;;;;16.67;7.85;;;24.50;99.90;;;;;;5014227;28;20255;-57
2022/06/19 00:55:18;;;;;;;15.13;8.00;;;24.60;99.90;;;;;;5013951;28;20634;-55
2022/06/19 00:57:49;;;;;;;12.63;7.38;;;24.70;99.90;;;;;;5014337;28;20191;-55
2022/06/19 01:00:26;;;;;;;15.32;9.02;;;24.60;99.90;;;;;;5014225;28;20179;-58
2022/06/19 01:03:18;;;;;;;14.10;8.20;;;24.70;99.90;;;;;;5013562;28;20172;-57
2022/06/19 01:05:46;;;;;;;16.02;8.23;;;24.70;99.90;;;;;;5014213;28;20192;-58
2022/06/19 01:08:12;;;;;;;11.50;7.90;;;24.60;99.90;;;;;;5014148;28;20182;-54
2022/06/19 01:10:41;;;;;;;16.75;7.93;;;24.50;99.90;;;;;;4996264;28;20597;-58
2022/06/19 01:13:07;;;;;;;12.68;8.18;;;24.60;99.90;;;;;;5013571;28;20215;-58
2022/06/19 01:15:34;;;;;;;23.25;9.05;;;24.60;99.90;;;;;;5013810;28;20168;-58
2022/06/19 01:18:04;;;;;;;20.25;8.38;;;24.60;99.90;;;;;;5013634;28;20588;-58
2022/06/19 01:20:32;;;;;;;17.92;8.32;;;24.50;99.90;;;;;;5013507;28;20172;-56
2022/06/19 01:23:22;;;;;;;17.35;8.45;;;24.60;99.90;;;;;;5013434;28;20183;-57
2022/06/19 01:25:50;;;;;;;10.82;7.30;;;24.50;99.90;;;;;;4967159;28;20188;-57
2022/06/19 01:31:20;;;;;;;15.75;7.75;;;24.40;99.90;;;;;;5013775;28;20222;-54
2022/06/19 01:34:02;;;;;;;16.05;7.55;;;24.50;99.90;;;;;;5013567;28;20255;-54
2022/06/19 01:36:30;;;;;;;12.93;7.97;;;24.10;99.90;;;;;;5013352;28;20175;-55
2022/06/19 01:38:57;;;;;;;15.65;8.02;;;24.00;99.90;;;;;;5013497;28;20172;-55
2022/06/19 01:41:30;;;;;;;16.85;8.35;;;24.00;99.90;;;;;;5013182;28;20174;-57
2022/06/19 01:43:56;;;;;;;17.92;7.50;;;23.90;99.90;;;;;;5013109;28;20207;-54
2022/06/19 01:46:23;;;;;;;14.00;7.85;;;24.00;99.90;;;;;;5013098;28;20507;-58
2022/06/19 01:48:49;;;;;;;18.58;8.43;;;24.00;99.90;;;;;;5013187;28;20164;-58
2022/06/19 01:51:15;;;;;;;14.68;7.97;;;24.10;99.90;;;;;;5013163;28;20224;-57
2022/06/19 01:53:53;;;;;;;10.05;7.60;;;24.00;99.90;;;;;;5013117;28;20545;-57
2022/06/19 01:56:19;;;;;;;11.15;7.65;;;23.80;99.90;;;;;;5012941;28;20242;-56
2022/06/19 01:58:49;;;;;;;16.70;8.60;;;23.90;99.90;;;;;;5013423;28;20647;-58
2022/06/19 02:01:14;;;;;;;14.30;8.02;;;24.00;99.90;;;;;;5013474;28;20175;-57
2022/06/19 02:03:47;;;;;;;17.55;8.50;;;24.00;99.90;;;;;;5012931;28;20195;-57
2022/06/19 02:06:19;;;;;;;14.00;8.95;;;24.00;99.90;;;;;;5013159;28;20172;-57
2022/06/19 02:08:46;;;;;;;19.77;9.05;;;23.90;99.90;;;;;;5013078;28;20244;-58
2022/06/19 02:11:13;;;;;;;19.83;9.00;;;23.80;99.90;;;;;;5012748;28;20602;-57
2022/06/19 02:13:40;;;;;;;14.55;9.35;;;23.70;99.90;;;;;;5012415;28;20172;-57
2022/06/19 02:16:09;;;;;;;16.50;8.75;;;23.40;99.90;;;;;;5012436;28;20196;-55
2022/06/19 02:18:40;;;;;;;14.52;8.88;;;23.50;99.90;;;;;;5012616;28;20626;-55
2022/06/19 02:21:07;;;;;;;17.25;9.15;;;23.50;99.90;;;;;;5012514;28;20160;-54
2022/06/19 02:23:36;;;;;;;18.88;8.27;;;23.50;99.90;;;;;;5012469;28;20677;-54
2022/06/19 02:26:09;;;;;;;17.73;9.27;;;23.40;99.90;;;;;;5012800;28;20184;-57
2022/06/19 02:28:36;;;;;;;26.73;8.65;;;23.10;99.90;;;;;;5012621;28;20168;-57
2022/06/19 02:31:03;;;;;;;17.27;8.57;;;22.50;99.90;;;;;;5012435;28;20207;-57
2022/06/19 02:33:31;;;;;;;14.35;9.05;;;22.40;99.90;;;;;;5012376;28;20168;-58
2022/06/19 02:35:57;;;;;;;15.45;8.75;;;22.60;99.90;;;;;;5012582;28;20275;-57
2022/06/19 02:38:23;;;;;;;13.27;9.13;;;22.70;99.90;;;;;;5012337;28;20684;-57
2022/06/19 02:41:14;;;;;;;18.55;9.82;;;22.60;99.90;;;;;;5012235;28;20176;-57
2022/06/19 02:43:40;;;;;;;28.88;10.70;;;22.60;99.90;;;;;;5012240;28;20250;-57
2022/06/19 02:46:08;;;;;;;19.52;9.70;;;22.40;99.90;;;;;;5012274;28;20503;-57
2022/06/19 02:48:34;;;;;;;16.73;8.57;;;22.40;99.90;;;;;;5011936;28;20179;-57
2022/06/19 02:51:03;;;;;;;6.38;5.70;;;22.20;99.90;;;;;;5012115;28;20224;-57
2022/06/19 02:53:30;;;;;;;10.10;5.05;;;22.00;99.90;;;;;;5012438;28;20195;-54
2022/06/19 02:55:57;;;;;;;7.82;4.18;;;21.90;99.90;;;;;;5012143;28;20222;-55
2022/06/19 02:58:24;;;;;;;6.80;3.58;;;21.80;99.90;;;;;;5012106;28;20537;-55
2022/06/19 03:00:51;;;;;;;7.50;3.80;;;21.60;99.90;;;;;;5012275;28;20199;-56
2022/06/19 03:03:35;;;;;;;6.45;3.90;;;21.50;99.90;;;;;;5012249;28;20211;-54
2022/06/19 03:06:01;;;;;;;5.75;3.72;;;21.30;99.90;;;;;;5012186;28;20637;-53
2022/06/19 03:08:27;;;;;;;7.50;3.53;;;21.30;99.90;;;;;;5012206;28;20543;-54
2022/06/19 03:10:52;;;;;;;7.72;3.42;;;21.20;99.90;;;;;;5012038;28;20251;-55
2022/06/19 03:13:19;;;;;;;5.20;3.03;;;21.20;99.90;;;;;;5011962;28;20630;-55
2022/06/19 03:15:45;;;;;;;5.32;2.83;;;21.00;99.90;;;;;;5012466;28;20573;-59
2022/06/19 03:18:11;;;;;;;7.70;2.83;;;20.80;99.90;;;;;;5012304;28;20172;-56
2022/06/19 03:20:37;;;;;;;5.97;3.08;;;20.80;99.90;;;;;;5011785;28;20171;-55
2022/06/19 03:23:03;;;;;;;6.28;2.75;;;20.80;99.90;;;;;;5011848;28;20181;-56
2022/06/19 03:25:29;;;;;;;7.30;2.85;;;20.50;99.90;;;;;;5012925;28;20188;-54
2022/06/19 03:27:55;;;;;;;7.13;2.70;;;20.40;99.90;;;;;;5015749;28;20167;-55
2022/06/19 03:30:21;;;;;;;6.65;2.88;;;20.20;99.90;;;;;;5015709;28;20168;-55
2022/06/19 03:32:47;;;;;;;6.78;2.72;;;20.10;99.90;;;;;;5015720;28;20175;-56
2022/06/19 03:35:14;;;;;;;10.00;3.33;;;20.10;99.90;;;;;;5016118;28;20172;-56
2022/06/19 03:37:39;;;;;;;7.20;2.80;;;20.00;99.90;;;;;;4997942;28;20581;-57
2022/06/19 03:40:06;;;;;;;8.70;2.78;;;19.80;99.90;;;;;;5015334;28;20171;-57
2022/06/19 03:42:32;;;;;;;8.20;3.15;;;19.90;99.90;;;;;;5015465;28;20709;-57
2022/06/19 03:44:58;;;;;;;7.07;2.70;;;19.70;99.90;;;;;;5015372;28;20286;-56
2022/06/19 03:47:25;;;;;;;5.00;2.40;;;19.50;99.90;;;;;;5015356;28;20164;-56
2022/06/19 03:49:52;;;;;;;7.35;2.67;;;19.40;99.90;;;;;;5015117;28;20223;-55
2022/06/19 03:52:17;;;;;;;7.35;3.00;;;19.50;99.90;;;;;;5015338;28;20259;-57
2022/06/19 03:54:43;;;;;;;6.75;2.65;;;19.50;99.90;;;;;;5015586;28;20246;-56
2022/06/19 03:57:13;;;;;;;10.13;2.58;;;19.40;99.90;;;;;;5015443;28;20176;-56
2022/06/19 03:59:38;;;;;;;9.40;2.90;;;19.30;99.90;;;;;;5015118;28;20538;-57
2022/06/19 04:02:05;;;;;;;8.60;2.67;;;19.30;99.90;;;;;;5015073;28;20176;-55
2022/06/19 04:04:31;;;;;;;7.38;2.80;;;19.30;99.90;;;;;;5015134;28;20204;-57
2022/06/19 04:06:57;;;;;;;9.77;2.47;;;19.10;99.90;;;;;;5014942;28;20169;-56
2022/06/19 04:09:22;;;;;;;11.23;2.88;;;19.10;99.90;;;;;;5014957;28;20178;-57
2022/06/19 04:11:48;;;;;;;7.90;2.33;;;19.00;99.90;;;;;;5014903;28;20171;-56
2022/06/19 04:14:15;;;;;;;10.75;2.60;;;19.20;99.90;;;;;;5015185;28;20168;-57
2022/06/19 04:16:42;;;;;;;10.05;2.80;;;19.20;99.90;;;;;;5015450;28;20180;-57
2022/06/19 04:19:08;;;;;;;10.18;2.78;;;19.20;99.90;;;;;;5014779;28;20255;-55
2022/06/19 04:21:41;;;;;;;6.07;2.25;;;19.00;99.90;;;;;;5015073;28;20259;-55
2022/06/19 04:24:09;;;;;;;12.85;2.92;;;18.90;99.90;;;;;;5014605;28;20258;-55
2022/06/19 04:26:36;;;;;;;14.05;3.33;;;18.60;99.90;;;;;;5014805;28;20219;-55
2022/06/19 04:29:04;;;;;;;10.02;2.25;;;18.70;99.90;;;;;;5014684;28;20534;-55
2022/06/19 04:31:29;;;;;;;10.07;2.42;;;18.60;99.90;;;;;;5014504;28;20203;-56
2022/06/19 04:33:55;;;;;;;7.88;2.65;;;18.70;99.90;;;;;;5014585;28;20192;-57
2022/06/19 04:36:24;;;;;;;7.93;2.22;;;18.70;99.90;;;;;;5014447;28;20259;-57
2022/06/19 04:38:50;;;;;;;7.22;2.28;;;18.80;99.90;;;;;;5014051;28;20259;-57
2022/06/19 04:41:25;;;;;;;14.65;3.72;;;18.90;99.90;;;;;;5014628;28;20172;-57
2022/06/19 04:43:52;;;;;;;8.27;2.55;;;19.00;99.90;;;;;;5014186;28;20195;-57
2022/06/19 04:46:18;;;;;;;6.85;2.33;;;19.10;99.90;;;;;;5014260;28;20176;-57
2022/06/19 04:48:44;;;;;;;8.30;2.65;;;19.00;99.90;;;;;;5014788;28;20172;-55
2022/06/19 04:51:10;;;;;;;11.18;3.33;;;19.20;99.90;;;;;;5014004;28;20293;-56
2022/06/19 04:53:37;;;;;;;12.57;3.10;;;19.30;99.90;;;;;;5014143;28;20172;-56
2022/06/19 04:56:03;;;;;;;11.55;2.88;;;19.30;99.90;;;;;;5013975;28;20634;-56
2022/06/19 04:58:29;;;;;;;10.45;2.38;;;19.40;99.90;;;;;;5014109;28;20172;-56
2022/06/19 05:00:55;;;;;;;14.32;3.08;;;19.40;99.90;;;;;;5014073;28;20160;-55
2022/06/19 05:03:23;;;;;;;11.18;3.15;;;19.60;99.90;;;;;;5013885;28;20257;-55
2022/06/19 05:05:51;;;;;;;10.30;2.92;;;19.60;99.90;;;;;;5014010;28;20225;-57
2022/06/19 05:08:17;;;;;;;12.50;3.60;;;19.60;99.90;;;;;;5013820;28;20645;-56
2022/06/19 05:10:42;;;;;;;10.32;2.78;;;19.30;99.90;;;;;;5014103;28;20172;-57
2022/06/19 05:13:26;;;;;;;8.35;2.92;;;19.40;99.90;;;;;;5013683;28;20214;-55
2022/06/19 05:16:02;;;;;;;23.48;3.08;;;19.50;99.90;;;;;;5013720;28;20263;-59
2022/06/19 05:18:28;;;;;;;10.23;3.50;;;19.50;99.90;;;;;;5013738;28;20634;-57
2022/06/19 05:20:57;;;;;;;17.13;4.00;;;19.50;99.90;;;;;;5013913;28;20182;-58
2022/06/19 05:23:22;;;;;;;8.88;2.63;;;19.50;99.90;;;;;;5013676;28;20447;-57
2022/06/19 05:25:48;;;;;;;16.63;3.38;;;19.30;99.90;;;;;;5013556;28;20180;-57
2022/06/19 05:28:13;;;;;;;10.05;3.00;;;19.60;99.90;;;;;;5013787;28;20175;-57
2022/06/19 05:30:39;;;;;;;11.35;3.05;;;19.80;99.90;;;;;;5013540;28;20172;-58
2022/06/19 05:33:04;;;;;;;12.30;3.63;;;19.90;99.90;;;;;;5013397;28;20651;-58
2022/06/19 05:35:30;;;;;;;14.45;4.22;;;19.70;99.90;;;;;;5013265;28;20172;-57
2022/06/19 05:37:56;;;;;;;11.68;3.70;;;20.00;99.90;;;;;;5013321;28;20164;-56
2022/06/19 05:40:21;;;;;;;13.55;3.47;;;20.10;99.90;;;;;;4995650;28;20195;-58
2022/06/19 05:42:48;;;;;;;13.40;3.70;;;20.00;99.90;;;;;;5013174;28;20164;-58
2022/06/19 05:45:13;;;;;;;10.18;3.92;;;20.10;99.90;;;;;;5013478;28;20210;-57
2022/06/19 05:47:39;;;;;;;12.13;3.72;;;20.20;99.90;;;;;;5013391;28;20168;-58
2022/06/19 05:50:05;;;;;;;13.00;4.00;;;20.10;99.90;;;;;;5011896;28;20226;-57
2022/06/19 05:52:31;;;;;;;13.75;4.57;;;20.30;99.90;;;;;;5013162;28;20167;-56
2022/06/19 05:54:56;;;;;;;13.80;4.10;;;20.40;99.90;;;;;;5013001;28;20551;-57
2022/06/19 05:57:22;;;;;;;15.38;3.92;;;20.20;99.90;;;;;;4995364;28;20168;-55
2022/06/19 05:59:48;;;;;;;13.18;4.28;;;20.30;99.90;;;;;;5013230;28;20182;-55
2022/06/19 06:02:15;;;;;;;10.13;3.58;;;20.30;99.90;;;;;;5013114;28;20164;-55
2022/06/19 06:04:41;;;;;;;12.15;3.20;;;20.60;99.90;;;;;;5013124;28;20203;-56
2022/06/19 06:07:08;;;;;;;12.65;3.83;;;20.70;99.90;;;;;;5012806;28;20178;-57
2022/06/19 06:09:35;;;;;;;12.02;4.03;;;20.70;99.90;;;;;;5012821;28;21189;-57
2022/06/19 06:12:01;;;;;;;12.63;3.05;;;20.80;99.90;;;;;;5012720;28;20628;-57
2022/06/19 06:14:27;;;;;;;8.88;3.35;;;21.10;99.90;;;;;;5012658;28;20163;-55
2022/06/19 06:16:52;;;;;;;12.10;3.20;;;21.10;99.90;;;;;;5012693;28;20175;-56
2022/06/19 06:19:18;;;;;;;10.88;3.20;;;21.40;99.90;;;;;;5012631;28;20172;-54
2022/06/19 06:21:43;;;;;;;15.25;3.13;;;21.40;99.90;;;;;;5012926;28;20163;-54
2022/06/19 06:24:13;;;;;;;13.60;3.15;;;21.20;99.90;;;;;;5012504;28;20287;-57
2022/06/19 06:26:38;;;;;;;16.13;3.67;;;20.90;99.90;;;;;;5012454;28;20164;-55
2022/06/19 06:29:04;;;;;;;12.65;3.38;;;21.20;99.90;;;;;;5012768;28;20542;-55
2022/06/19 06:31:30;;;;;;;10.15;3.20;;;21.50;99.90;;;;;;5012769;28;20630;-58
2022/06/19 06:33:56;;;;;;;10.38;2.97;;;21.40;99.90;;;;;;5012607;28;20327;-57
2022/06/19 06:36:22;;;;;;;12.07;3.22;;;21.50;99.90;;;;;;5011914;28;20263;-55
2022/06/19 06:38:48;;;;;;;10.98;3.60;;;21.50;99.90;;;;;;5012548;28;20168;-56
2022/06/19 06:41:14;;;;;;;11.90;3.60;;;21.60;99.90;;;;;;5012349;28;20176;-55
2022/06/19 06:43:41;;;;;;;9.90;3.47;;;21.80;99.90;;;;;;5012720;28;20549;-55
2022/06/19 06:46:12;;;;;;;9.35;3.25;;;21.90;99.90;;;;;;5012120;28;20168;-57
2022/06/19 06:48:38;;;;;;;15.40;3.72;;;22.00;99.90;;;;;;5012284;28;20168;-57
2022/06/19 06:51:11;;;;;;;10.93;3.45;;;22.10;99.90;;;;;;5012080;28;21229;-57
2022/06/19 06:53:37;;;;;;;13.77;3.60;;;22.40;99.90;;;;;;5012116;28;20168;-56
2022/06/19 06:56:03;;;;;;;11.18;3.75;;;22.30;99.90;;;;;;5012179;28;20198;-57
2022/06/19 06:58:29;;;;;;;12.70;3.78;;;21.90;99.90;;;;;;5012135;28;20171;-55
2022/06/19 07:00:54;;;;;;;17.15;3.72;;;22.00;99.90;;;;;;5013969;28;20247;-56
2022/06/19 07:03:21;;;;;;;9.88;3.75;;;22.30;99.90;;;;;;5016153;28;20301;-56
2022/06/19 07:05:47;;;;;;;17.08;3.55;;;22.10;99.90;;;;;;5016155;28;20654;-55
2022/06/19 07:08:12;;;;;;;11.30;4.10;;;22.00;99.90;;;;;;4998875;28;20172;-55
2022/06/19 07:10:39;;;;;;;11.32;3.55;;;21.90;99.90;;;;;;5015992;28;20230;-55
2022/06/19 07:13:04;;;;;;;14.68;3.97;;;21.90;99.90;;;;;;5016083;28;20252;-56
2022/06/19 07:15:30;;;;;;;13.65;3.47;;;21.80;99.90;;;;;;5016069;28;20195;-56
2022/06/19 07:17:55;;;;;;;12.00;3.83;;;21.70;99.90;;;;;;5015925;28;20270;-55
2022/06/19 07:20:21;;;;;;;10.18;3.92;;;21.70;99.90;;;;;;5016031;28;20168;-55
2022/06/19 07:22:47;;;;;;;16.15;4.38;;;21.60;99.90;;;;;;5015774;28;20656;-55
2022/06/19 07:25:18;;;;;;;15.10;3.35;;;21.50;99.90;;;;;;5016057;28;20219;-57
2022/06/19 07:27:44;;;;;;;11.38;3.22;;;21.30;99.90;;;;;;5016089;28;20175;-56
2022/06/19 07:30:15;;;;;;;13.18;3.88;;;21.30;99.90;;;;;;5015667;28;20168;-55
2022/06/19 07:32:40;;;;;;;9.77;3.10;;;21.00;99.90;;;;;;5015810;28;20192;-57
2022/06/19 07:35:06;;;;;;;11.20;3.08;;;21.00;99.90;;;;;;5015614;28;20210;-55
2022/06/19 07:37:32;;;;;;;17.08;3.47;;;20.90;99.90;;;;;;4997068;28;20179;-55
2022/06/19 07:39:57;;;;;;;17.00;3.65;;;20.80;99.90;;;;;;5015145;28;20198;-55
2022/06/19 07:42:23;;;;;;;20.92;3.78;;;21.10;99.90;;;;;;5014995;28;20172;-56
2022/06/19 07:44:48;;;;;;;23.45;4.32;;;21.20;99.90;;;;;;5015172;28;20334;-55
2022/06/19 07:50:10;;;;;;;14.52;4.05;;;21.20;99.90;;;;;;5013642;28;20218;-55
2022/06/19 07:52:47;;;;;;;21.27;5.38;;;21.20;99.90;;;;;;5013675;28;20167;-54
2022/06/19 07:55:19;;;;;;;11.90;3.30;;;21.20;99.90;;;;;;5014036;28;20168;-57
2022/06/19 07:57:45;;;;;;;10.23;3.22;;;21.50;99.90;;;;;;5013305;28;20192;-55
2022/06/19 08:00:17;;;;;;;14.25;2.80;;;21.60;99.90;;;;;;5013577;28;20642;-55
2022/06/19 08:02:46;;;;;;;14.00;2.90;;;22.80;99.90;;;;;;5014989;28;20172;-55
2022/06/19 08:05:12;;;;;;;8.88;2.58;;;21.50;99.90;;;;;;5015143;28;20227;-56
2022/06/19 08:07:41;;;;;;;8.15;2.67;;;21.40;99.90;;;;;;5013605;28;20604;-55
2022/06/19 08:10:13;;;;;;;9.82;2.85;;;21.50;99.90;;;;;;5013351;28;20177;-55
2022/06/19 08:12:39;;;;;;;9.77;3.08;;;21.50;99.90;;;;;;5012370;28;20534;-55
2022/06/19 08:15:05;;;;;;;11.07;2.97;;;21.30;99.90;;;;;;5013455;28;20172;-55
2022/06/19 08:17:31;;;;;;;11.85;3.15;;;21.60;99.90;;;;;;5013248;28;20160;-55
2022/06/19 08:19:57;;;;;;;7.43;2.50;;;21.90;99.90;;;;;;5012759;28;20548;-55
2022/06/19 08:22:23;;;;;;;8.05;2.90;;;22.10;99.90;;;;;;5012881;28;20239;-55
2022/06/19 08:24:49;;;;;;;9.82;3.45;;;22.40;99.90;;;;;;5013075;28;20212;-57
2022/06/19 08:27:14;;;;;;;9.55;2.75;;;22.20;99.90;;;;;;5012786;28;20175;-55
2022/06/19 08:29:40;;;;;;;9.80;2.70;;;22.20;99.90;;;;;;5014372;28;20251;-55
2022/06/19 08:32:06;;;;;;;8.23;2.78;;;22.30;99.90;;;;;;5014511;28;20171;-55
2022/06/19 08:34:31;;;;;;;6.97;2.55;;;22.30;99.90;;;;;;5014596;28;20533;-57
2022/06/19 08:37:01;;;;;;;10.57;3.10;;;22.30;99.90;;;;;;5014450;28;20210;-55
2022/06/19 08:39:28;;;;;;;8.38;2.70;;;22.20;99.90;;;;;;5014392;28;20192;-57
2022/06/19 08:42:15;;;;;;;13.63;2.90;;;22.20;99.90;;;;;;5014054;28;20188;-57
2022/06/19 08:44:49;;;;;;;7.65;2.70;;;22.20;99.90;;;;;;5014507;28;20210;-55
2022/06/19 08:48:02;;;;;;;10.35;3.17;;;22.50;99.90;;;;;;5014081;28;20236;-57
2022/06/19 08:50:52;;;;;;;9.25;3.00;;;22.80;99.90;;;;;;4951125;28;20266;-58
2022/06/19 08:53:36;;;;;;;9.88;2.83;;;22.90;99.90;;;;;;4994869;28;20191;-58
2022/06/19 08:56:05;;;;;;;11.63;2.80;;;22.90;99.90;;;;;;4994544;28;20255;-57
2022/06/19 08:58:54;;;;;;;8.30;2.83;;;22.80;99.90;;;;;;4994308;28;20179;-57
2022/06/19 09:01:30;;;;;;;14.40;3.40;;;22.80;99.90;;;;;;4994557;28;20257;-55
2022/06/19 09:07:14;;;;;;;8.20;3.28;;;22.90;99.90;;;;;;4994302;28;20701;-58
2022/06/19 09:10:01;;;;;;;10.05;3.17;;;23.00;99.90;;;;;;4994498;28;20168;-57
2022/06/19 09:12:43;;;;;;;11.38;3.60;;;23.10;99.90;;;;;;4994205;28;20196;-57
2022/06/19 09:15:16;;;;;;;9.30;3.30;;;23.20;99.90;;;;;;4994168;28;20164;-57
2022/06/19 09:18:00;;;;;;;8.38;3.00;;;22.40;99.90;;;;;;4994635;28;20200;-57
2022/06/19 09:20:44;;;;;;;8.48;2.70;;;23.50;99.90;;;;;;4994135;28;20164;-56
2022/06/19 09:23:47;;;;;;;11.25;3.30;;;23.60;99.90;;;;;;4994150;28;20196;-55
2022/06/19 09:26:36;;;;;;;8.07;3.03;;;23.70;99.90;;;;;;4993951;28;20626;-56
2022/06/19 09:29:13;;;;;;;7.90;3.22;;;23.80;99.90;;;;;;4993968;28;20720;-57
2022/06/19 09:31:48;;;;;;;9.07;3.40;;;23.80;99.90;;;;;;4994232;28;20207;-57
2022/06/19 09:34:36;;;;;;;8.68;2.75;;;23.70;99.90;;;;;;4994025;28;20254;-57
2022/06/19 09:37:16;;;;;;;12.00;3.63;;;24.00;99.90;;;;;;4993844;28;20161;-56
2022/06/19 09:39:53;;;;;;;11.48;2.70;;;24.10;99.90;;;;;;4994071;28;20522;-56
2022/06/19 09:42:48;;;;;;;7.70;2.83;;;24.20;99.90;;;;;;4993702;28;20164;-55
2022/06/19 09:45:24;;;;;;;9.65;3.53;;;24.10;99.90;;;;;;4993599;28;20200;-56
2022/06/19 09:48:14;;;;;;;10.07;3.15;;;24.30;99.90;;;;;;4992454;28;20187;-55
2022/06/19 09:51:00;;;;;;;13.90;3.33;;;24.70;99.90;;;;;;5007309;28;20302;-55
2022/06/19 09:53:37;;;;;;;8.95;3.35;;;25.00;99.90;;;;;;4985375;28;20172;-58
2022/06/19 09:56:22;;;;;;;10.07;3.65;;;25.00;99.90;;;;;;4994741;28;20168;-57
2022/06/19 09:58:54;;;;;;;11.18;3.40;;;25.20;99.90;;;;;;4993528;28;20259;-56
2022/06/19 10:01:23;;;;;;;12.13;3.63;;;24.80;99.90;;;;;;4993108;28;20192;-55
2022/06/19 10:04:01;;;;;;;8.02;3.67;;;24.70;99.90;;;;;;4993184;28;20279;-57
2022/06/19 10:06:48;;;;;;;9.45;3.42;;;24.40;99.90;;;;;;4993214;28;20176;-57
2022/06/19 10:09:22;;;;;;;9.77;3.38;;;23.90;99.90;;;;;;4993180;28;20168;-56
2022/06/19 10:11:52;;;;;;;13.77;4.57;;;23.60;99.90;;;;;;4993139;28;20199;-56
2022/06/19 10:14:43;;;;;;;12.77;4.07;;;23.30;99.90;;;;;;4993305;28;20177;-57
2022/06/19 10:17:29;;;;;;;9.02;3.88;;;22.70;99.90;;;;;;4993456;28;20165;-54
2022/06/19 10:20:20;;;;;;;11.23;3.33;;;22.50;99.90;;;;;;4993207;28;20173;-56
2022/06/19 10:22:48;;;;;;;9.85;3.60;;;22.50;99.90;;;;;;4992501;28;20244;-56
2022/06/19 10:25:26;;;;;;;12.88;3.88;;;22.60;99.90;;;;;;4992520;28;20272;-56
2022/06/19 10:28:00;;;;;;;13.77;4.07;;;22.70;99.90;;;;;;4992989;28;20247;-57
2022/06/19 10:30:50;;;;;;;12.43;3.85;;;23.20;99.90;;;;;;4992803;28;20633;-55
2022/06/19 10:33:30;;;;;;;11.23;3.80;;;23.60;99.90;;;;;;4992805;28;20252;-56
2022/06/19 10:36:06;;;;;;;11.75;4.38;;;23.70;99.90;;;;;;4992137;28;20164;-56
2022/06/19 10:38:38;;;;;;;11.23;3.97;;;24.30;99.90;;;;;;4992695;28;20332;-55
2022/06/19 10:44:24;;;;;;;7.93;3.40;;;24.90;99.90;;;;;;4992575;28;20243;-56
2022/06/19 10:47:11;;;;;;;11.77;4.07;;;25.10;99.90;;;;;;4992404;28;20218;-56
2022/06/19 10:50:23;;;;;;;13.18;3.70;;;24.90;99.90;;;;;;4992849;28;20227;-56
2022/06/19 10:53:14;;;;;;;10.07;3.42;;;24.70;99.90;;;;;;4946382;28;20191;-57
2022/06/19 10:55:45;;;;;;;8.40;3.50;;;24.40;99.90;;;;;;4992903;28;20765;-58
2022/06/19 10:58:23;;;;;;;9.93;4.15;;;24.40;99.90;;;;;;4992666;28;20247;-58
2022/06/19 11:00:56;;;;;;;7.80;3.53;;;24.20;99.90;;;;;;4992373;28;20187;-58
2022/06/19 11:06:48;;;;;;;10.20;3.97;;;24.90;99.90;;;;;;4992343;28;20214;-55
2022/06/19 11:09:29;;;;;;;7.82;3.72;;;24.80;99.90;;;;;;4992238;28;20178;-55
2022/06/19 11:12:00;;;;;;;13.93;3.70;;;24.50;99.90;;;;;;4992578;28;20530;-55
2022/06/19 11:14:33;;;;;;;11.23;4.00;;;24.80;99.90;;;;;;4975767;28;20227;-57
2022/06/19 11:17:14;;;;;;;10.00;3.88;;;25.30;99.90;;;;;;4992603;28;20541;-57
2022/06/19 11:19:46;;;;;;;14.50;4.68;;;25.70;99.90;;;;;;4992698;28;20172;-55
2022/06/19 11:22:32;;;;;;;13.73;4.38;;;25.20;99.90;;;;;;4992167;28;20172;-55
2022/06/19 11:25:19;;;;;;;9.65;3.50;;;25.50;99.90;;;;;;4992357;28;20273;-56
2022/06/19 11:28:02;;;;;;;13.93;4.15;;;25.80;99.90;;;;;;4990536;28;20540;-57
2022/06/19 11:30:33;;;;;;;9.38;3.97;;;25.90;99.90;;;;;;4990932;28;20164;-55
2022/06/19 11:32:59;;;;;;;13.07;4.30;;;26.10;99.90;;;;;;4992233;28;20168;-56
2022/06/19 11:35:35;;;;;;;12.07;4.15;;;26.10;99.90;;;;;;4992014;28;20157;-55
2022/06/19 11:38:00;;;;;;;8.80;4.57;;;25.90;99.90;;;;;;4991944;28;20217;-57
2022/06/19 11:40:40;;;;;;;10.25;4.07;;;25.60;99.90;;;;;;4992230;28;20255;-56
2022/06/19 11:43:24;;;;;;;10.63;4.18;;;25.50;99.90;;;;;;4992125;28;20590;-56
2022/06/19 11:45:59;;;;;;;11.90;4.18;;;25.80;99.90;;;;;;4991983;28;20179;-57
2022/06/19 11:48:26;;;;;;;11.02;3.85;;;25.90;99.90;;;;;;4995634;28;20164;-58
2022/06/19 11:50:53;;;;;;;11.93;4.57;;;25.80;99.90;;;;;;4995596;28;20211;-57
2022/06/19 11:53:23;;;;;;;10.60;3.80;;;26.00;99.90;;;;;;4995524;28;20514;-58
2022/06/19 11:55:52;;;;;;;11.18;3.45;;;26.20;99.90;;;;;;4995827;28;20579;-57
2022/06/19 11:58:40;;;;;;;8.90;3.40;;;26.10;99.90;;;;;;4995801;28;20224;-57
2022/06/19 12:01:13;;;;;;;15.77;4.25;;;26.10;99.90;;;;;;4995354;28;20168;-57
2022/06/19 12:03:44;;;;;;;13.23;4.78;;;25.80;99.90;;;;;;4995335;28;20540;-58
2022/06/19 12:06:12;;;;;;;11.15;4.13;;;26.10;99.90;;;;;;4995829;28;20195;-58
2022/06/19 12:08:59;;;;;;;6.63;2.92;;;26.10;99.90;;;;;;4995392;28;20160;-58
2022/06/19 12:11:41;;;;;;;12.88;4.63;;;25.90;99.90;;;;;;4995260;28;20175;-58
2022/06/19 12:14:09;;;;;;;9.30;3.60;;;26.10;99.90;;;;;;4977894;28;20568;-59
2022/06/19 12:16:35;;;;;;;11.32;3.55;;;26.10;99.90;;;;;;4995138;28;20164;-58
2022/06/19 12:19:24;;;;;;;11.73;3.05;;;25.60;99.90;;;;;;4995124;28;20184;-58
2022/06/19 12:22:04;;;;;;;13.82;3.55;;;25.50;99.90;;;;;;4995264;28;20172;-57
2022/06/19 12:24:49;;;;;;;8.68;2.72;;;25.90;99.90;;;;;;4995003;28;20215;-56
2022/06/19 12:27:17;;;;;;;9.40;3.22;;;25.60;99.90;;;;;;4994743;28;20160;-58
2022/06/19 12:29:52;;;;;;;13.90;3.30;;;25.50;99.90;;;;;;4994686;28;20638;-57
2022/06/19 12:32:26;;;;;;;12.75;3.50;;;25.30;99.90;;;;;;4995030;28;20172;-57
2022/06/19 12:34:56;;;;;;;11.50;3.58;;;25.40;99.90;;;;;;4994771;28;20168;-55
2022/06/19 12:37:23;;;;;;;9.85;4.00;;;25.10;99.90;;;;;;4995071;28;20581;-57
2022/06/19 12:39:49;;;;;;;11.20;3.70;;;25.20;99.90;;;;;;4994935;28;20161;-55
2022/06/19 12:42:18;;;;;;;15.40;4.13;;;25.30;99.90;;;;;;4994605;28;20160;-55
2022/06/19 12:44:52;;;;;;;11.30;3.45;;;25.60;99.90;;;;;;4994487;28;20212;-58
2022/06/19 12:47:33;;;;;;;8.73;3.83;;;25.70;99.90;;;;;;4994515;28;20171;-57
2022/06/19 12:50:17;;;;;;;8.55;3.42;;;25.50;99.90;;;;;;4994328;28;20212;-54
2022/06/19 12:53:04;;;;;;;11.00;3.33;;;25.60;99.90;;;;;;4994264;28;20165;-55
2022/06/19 12:55:38;;;;;;;14.45;3.75;;;25.70;99.90;;;;;;4994483;28;20633;-57
2022/06/19 12:58:31;;;;;;;9.18;3.33;;;25.60;99.90;;;;;;4993519;28;20179;-56
2022/06/19 13:01:09;;;;;;;10.45;3.75;;;25.50;99.90;;;;;;4994344;28;20169;-55
2022/06/19 13:03:44;;;;;;;14.52;3.60;;;25.50;99.90;;;;;;4994027;28;20183;-57
2022/06/19 13:06:28;;;;;;;10.85;3.90;;;25.70;99.90;;;;;;4994357;28;20164;-59
2022/06/19 13:09:02;;;;;;;14.02;3.85;;;24.20;99.90;;;;;;4994170;28;20200;-57
2022/06/19 13:11:49;;;;;;;10.32;3.45;;;25.50;99.90;;;;;;4994385;28;20192;-55
2022/06/19 13:14:44;;;;;;;13.18;3.75;;;25.50;99.90;;;;;;4993871;28;20168;-55
2022/06/19 13:17:27;;;;;;;10.93;3.78;;;24.90;99.90;;;;;;4994224;28;20190;-56